createdAt,value
2022-10-18T00:00:57.527Z,99560.09
2022-10-18T00:04:14.640Z,99550.19
2022-10-18T00:07:18.255Z,99557.63
2022-10-18T00:10:21.364Z,99552.13
2022-10-18T00:13:25.774Z,99559.28
2022-10-18T00:16:28.837Z,99565.06
2022-10-18T00:19:36.383Z,99559.56
2022-10-18T00:22:41.845Z,99565.06
2022-10-18T00:25:45.191Z,99566.16
2022-10-18T00:28:53.254Z,99560.09
2022-10-18T00:31:56.816Z,99568.09
2022-10-18T00:35:01.161Z,99567.81
2022-10-18T00:38:04.499Z,99565.88
2022-10-18T00:41:11.204Z,99557.63
2022-10-18T00:45:04.065Z,99556.47
2022-10-18T00:48:07.216Z,99558.75
2022-10-18T00:51:13.218Z,99561.75
2022-10-18T00:54:20.263Z,99555.72
2022-10-18T00:57:25.157Z,99563.44
2022-10-18T01:00:28.456Z,99546.91
2022-10-18T01:03:32.848Z,99547.75
2022-10-18T01:06:51.631Z,99548.56
2022-10-18T01:10:09.204Z,99542.22
2022-10-18T01:13:36.718Z,99533.69
2022-10-18T01:16:50.443Z,99531.78
2022-10-18T01:20:45.003Z,99527.38
2022-10-18T01:24:27.787Z,99527.94
2022-10-18T01:27:45.505Z,99526.06
2022-10-18T01:30:59.841Z,99523.81
2022-10-18T01:34:08.180Z,99499.03
2022-10-18T01:37:19.403Z,99512.78
2022-10-18T01:40:25.907Z,99497.41
2022-10-18T01:43:33.941Z,99489.16
2022-10-18T01:46:42.322Z,99486.41
2022-10-18T01:49:45.700Z,99485.03
2022-10-18T01:52:50.582Z,99485.88
2022-10-18T01:56:11.641Z,99482.00
2022-10-18T01:59:38.982Z,99478.97
2022-10-18T02:02:55.437Z,99471.81
2022-10-18T02:06:06.921Z,99474.84
2022-10-18T02:09:19.016Z,99480.38
2022-10-18T02:12:24.336Z,99483.94
2022-10-18T02:15:36.243Z,99472.34
2022-10-18T02:18:46.286Z,99477.31
2022-10-18T02:21:54.783Z,99470.19
2022-10-18T02:25:03.350Z,99480.38
2022-10-18T02:28:07.679Z,99480.38
2022-10-18T02:31:22.106Z,99471.50
2022-10-18T02:34:35.364Z,99478.16
2022-10-18T02:37:41.065Z,99481.19
2022-10-18T02:40:44.716Z,99486.69
2022-10-18T02:43:47.804Z,99477.31
2022-10-18T02:46:51.517Z,99481.72
2022-10-18T02:49:55.919Z,99484.47
2022-10-18T02:52:59.416Z,99482.00
2022-10-18T02:56:03.264Z,99487.50
2022-10-18T02:59:07.484Z,99487.50
2022-10-18T03:02:10.600Z,99489.44
2022-10-18T03:05:15.944Z,99497.09
2022-10-18T03:08:20.024Z,99499.03
2022-10-18T03:11:24.079Z,99485.28
2022-10-18T03:14:27.135Z,99475.09
2022-10-18T03:17:30.971Z,99483.34
2022-10-18T03:20:36.301Z,99478.38
2022-10-18T03:23:41.867Z,99472.88
2022-10-18T03:26:44.873Z,99479.19
2022-10-18T03:29:48.298Z,99461.59
2022-10-18T03:32:51.700Z,99487.19
2022-10-18T03:35:56.747Z,99482.50
2022-10-18T03:38:59.956Z,99479.19
2022-10-18T03:42:03.338Z,99491.03
2022-10-18T03:45:08.264Z,99483.06
2022-10-18T03:48:11.797Z,99485.81
2022-10-18T03:51:16.380Z,99500.41
2022-10-18T03:54:19.827Z,99490.78
2022-10-18T03:57:22.839Z,99502.63
2022-10-18T04:00:26.827Z,99496.28
2022-10-18T04:03:29.939Z,99497.09
2022-10-18T04:06:34.759Z,99494.06
2022-10-18T04:09:37.897Z,99501.78
2022-10-18T04:12:41.585Z,99498.25
2022-10-18T04:15:44.689Z,99493.03
2022-10-18T04:18:48.207Z,99493.03
2022-10-18T04:21:52.662Z,99502.94
2022-10-18T04:24:56.848Z,99493.03
2022-10-18T04:27:59.856Z,99480.38
2022-10-18T04:31:03.366Z,99487.50
2022-10-18T04:34:06.313Z,99482.00
2022-10-18T04:37:11.219Z,99485.28
2022-10-18T04:40:14.334Z,99482.53
2022-10-18T04:43:17.736Z,99482.84
2022-10-18T04:46:20.806Z,99489.16
2022-10-18T04:49:24.196Z,99483.94
2022-10-18T04:52:28.601Z,99483.94
2022-10-18T04:55:32.031Z,99478.72
2022-10-18T04:58:35.255Z,99479.81
2022-10-18T05:01:38.505Z,99480.94
2022-10-18T05:04:41.689Z,99481.78
2022-10-18T05:07:46.307Z,99470.47
2022-10-18T05:10:49.351Z,99478.47
2022-10-18T05:13:53.964Z,99458.38
2022-10-18T05:16:56.990Z,99461.69
2022-10-18T05:20:00.392Z,99464.97
2022-10-18T05:23:05.137Z,99472.13
2022-10-18T05:26:10.447Z,99476.53
2022-10-18T05:29:13.648Z,99479.28
2022-10-18T05:32:17.280Z,99482.56
2022-10-18T05:35:20.405Z,99462.19
2022-10-18T05:38:25.915Z,99465.50
2022-10-18T05:41:29.507Z,99472.09
2022-10-18T05:44:32.954Z,99467.97
2022-10-18T05:50:44.893Z,99454.44
2022-10-18T05:53:49.294Z,99456.06
2022-10-18T05:56:53.612Z,99459.28
2022-10-18T05:59:56.558Z,99473.31
2022-10-18T06:03:00.543Z,99467.22
2022-10-18T06:06:06.511Z,99471.34
2022-10-18T06:09:11.497Z,99459.72
2022-10-18T06:12:14.575Z,99472.94
2022-10-18T06:15:18.436Z,99470.75
2022-10-18T06:18:21.401Z,99465.78
2022-10-18T06:21:25.912Z,99475.63
2022-10-18T06:24:30.276Z,99480.81
2022-10-18T06:27:35.128Z,99473.03
2022-10-18T06:30:38.378Z,99479.31
2022-10-18T06:33:43.125Z,99484.47
2022-10-18T06:36:46.246Z,99486.91
2022-10-18T06:39:50.981Z,99478.59
2022-10-18T06:43:00.282Z,99481.81
2022-10-18T06:46:08.089Z,99482.59
2022-10-18T06:49:14.101Z,99487.22
2022-10-18T06:52:25.919Z,99477.78
2022-10-18T06:55:39.413Z,99488.47
2022-10-18T06:58:42.706Z,99490.66
2022-10-18T07:01:45.665Z,99490.00
2022-10-18T07:04:49.057Z,99494.88
2022-10-18T07:07:54.339Z,99472.16
2022-10-18T07:11:01.125Z,99483.03
2022-10-18T07:14:05.487Z,99489.03
2022-10-18T07:17:09.082Z,99483.81
2022-10-18T07:20:12.559Z,99482.16
2022-10-18T07:23:15.967Z,99487.53
2022-10-18T07:26:23.850Z,99487.44
2022-10-18T07:29:27.174Z,99475.78
2022-10-18T07:32:30.195Z,99488.47
2022-10-18T07:35:33.578Z,99476.84
2022-10-18T07:38:37.050Z,99474.03
2022-10-18T07:41:41.771Z,99477.81
2022-10-18T07:44:44.680Z,99480.28
2022-10-18T07:47:48.073Z,99476.41
2022-10-18T07:50:51.164Z,99481.63
2022-10-18T07:53:55.144Z,99467.81
2022-10-18T07:56:59.551Z,99466.72
2022-10-18T08:00:03.624Z,99468.34
2022-10-18T08:03:14.574Z,99476.34
2022-10-18T08:06:21.118Z,99474.09
2022-10-18T08:09:24.240Z,99478.50
2022-10-18T08:12:28.832Z,99466.84
2022-10-18T08:15:31.812Z,99471.06
2022-10-18T08:18:36.694Z,99478.19
2022-10-18T08:21:39.696Z,99468.28
2022-10-18T08:24:43.258Z,99474.94
2022-10-18T08:27:47.794Z,99463.88
2022-10-18T08:30:51.221Z,99461.19
2022-10-18T08:33:57.098Z,99462.91
2022-10-18T08:37:00.779Z,99462.47
2022-10-18T08:40:03.861Z,99466.38
2022-10-18T08:43:21.595Z,99463.72
2022-10-18T08:46:26.134Z,99467.88
2022-10-18T08:49:46.302Z,99454.31
2022-10-18T08:52:58.438Z,99447.97
2022-10-18T08:56:11.136Z,99444.91
2022-10-18T08:59:15.697Z,99448.47
2022-10-18T09:02:39.813Z,99446.50
2022-10-18T09:05:52.993Z,99453.50
2022-10-18T09:09:32.533Z,99443.34
2022-10-18T09:13:08.534Z,99447.44
2022-10-18T09:16:21.694Z,99450.84
2022-10-18T09:19:47.035Z,99446.78
2022-10-18T09:22:56.975Z,99428.59
2022-10-18T09:26:11.210Z,99422.59
2022-10-18T09:29:41.820Z,99424.97
2022-10-18T09:32:55.776Z,99407.31
2022-10-18T09:36:03.358Z,99419.91
2022-10-18T09:39:39.519Z,99412.53
2022-10-18T09:42:56.271Z,99415.31
2022-10-18T09:46:00.001Z,99412.22
2022-10-18T09:49:16.391Z,99403.34
2022-10-18T09:52:27.617Z,99412.44
2022-10-18T09:55:39.577Z,99414.97
2022-10-18T09:58:46.399Z,99409.19
2022-10-18T10:01:49.893Z,99405.81
2022-10-18T10:04:55.704Z,99410.41
2022-10-18T10:08:02.359Z,99393.47
2022-10-18T10:11:05.795Z,99399.41
2022-10-18T10:17:27.451Z,99376.97
2022-10-18T10:20:42.777Z,99369.84
2022-10-18T10:23:53.880Z,99364.16
2022-10-18T10:27:04.334Z,99359.25
2022-10-18T10:30:25.502Z,99362.00
2022-10-18T10:33:36.357Z,99354.38
2022-10-18T10:36:50.145Z,99362.13
2022-10-18T10:40:19.880Z,99355.78
2022-10-18T10:43:44.044Z,99342.38
2022-10-18T10:46:50.376Z,99323.38
2022-10-18T10:49:57.341Z,99320.78
2022-10-18T10:53:02.507Z,99313.22
2022-10-18T10:56:18.754Z,99307.09
2022-10-18T10:59:26.383Z,99309.75
2022-10-18T11:02:33.876Z,99298.69
2022-10-18T11:05:46.822Z,99293.13
2022-10-18T11:08:53.505Z,99290.88
2022-10-18T11:12:10.129Z,99282.53
2022-10-18T11:15:24.605Z,99277.56
2022-10-18T11:18:34.532Z,99281.13
2022-10-18T11:21:39.229Z,99273.69
2022-10-18T11:24:45.058Z,99260.97
2022-10-18T11:28:00.375Z,99265.84
2022-10-18T11:31:19.135Z,99268.31
2022-10-18T11:34:55.056Z,99268.03
2022-10-18T11:38:20.219Z,99252.22
2022-10-18T11:41:35.452Z,99252.81
2022-10-18T11:44:51.195Z,99252.00
2022-10-18T11:48:06.451Z,99243.13
2022-10-18T11:51:29.646Z,99235.38
2022-10-18T11:55:12.562Z,99228.66
2022-10-18T11:58:43.564Z,99232.78
2022-10-18T12:02:29.564Z,99219.50
2022-10-18T12:05:51.215Z,99210.72
2022-10-18T12:09:00.827Z,99210.13
2022-10-18T12:12:17.531Z,99212.00
2022-10-18T12:15:37.182Z,99203.13
2022-10-18T12:18:56.405Z,99202.84
2022-10-18T12:22:15.412Z,99194.56
2022-10-18T12:25:20.125Z,99191.00
2022-10-18T12:28:44.106Z,99181.53
2022-10-18T12:31:54.243Z,99175.50
2022-10-18T12:35:04.439Z,99158.94
2022-10-18T12:38:22.208Z,99163.56
2022-10-18T12:41:31.185Z,99155.06
2022-10-18T12:44:36.929Z,99151.19
2022-10-18T12:47:41.813Z,99148.44
2022-10-18T12:50:45.529Z,99156.72
2022-10-18T12:53:57.948Z,99151.72
2022-10-18T12:57:03.588Z,99142.63
2022-10-18T13:00:28.377Z,99140.41
2022-10-18T13:03:55.101Z,99143.25
2022-10-18T13:07:34.549Z,99138.56
2022-10-18T13:10:38.534Z,99136.41
2022-10-18T13:14:12.106Z,99130.53
2022-10-18T13:17:31.018Z,99116.50
2022-10-18T13:20:45.316Z,99116.22
2022-10-18T13:24:11.029Z,99109.56
2022-10-18T13:27:37.200Z,99111.50
2022-10-18T13:30:52.132Z,99105.47
2022-10-18T13:33:55.310Z,99105.78
2022-10-18T13:37:03.667Z,99108.75
2022-10-18T13:40:24.985Z,99099.66
2022-10-18T13:44:11.684Z,99102.41
2022-10-18T13:47:32.729Z,99101.16
2022-10-18T13:50:43.329Z,99096.47
2022-10-18T13:54:01.018Z,99094.22
2022-10-18T13:57:25.991Z,99088.72
2022-10-18T14:01:03.204Z,99081.25
2022-10-18T14:05:10.550Z,99072.09
2022-10-18T14:08:26.182Z,99068.28
2022-10-18T14:11:37.435Z,99066.03
2022-10-18T14:14:47.020Z,99055.84
2022-10-18T14:17:55.237Z,99062.16
2022-10-18T14:21:13.744Z,99052.78
2022-10-18T14:24:27.553Z,99046.13
2022-10-18T14:27:33.606Z,99052.47
2022-10-18T14:30:38.517Z,99031.53
2022-10-18T14:33:45.909Z,99031.22
2022-10-18T14:36:51.448Z,99032.34
2022-10-18T14:39:54.576Z,99032.34
2022-10-18T14:43:04.245Z,99026.53
2022-10-18T14:46:22.042Z,99034.28
2022-10-18T14:49:25.550Z,99026.63
2022-10-18T14:52:35.604Z,99023.56
2022-10-18T14:55:43.027Z,99026.41
2022-10-18T14:58:47.680Z,99020.88
2022-10-18T15:01:58.118Z,99005.47
2022-10-18T15:05:09.901Z,99013.25
2022-10-18T15:08:13.918Z,99013.34
2022-10-18T15:11:18.143Z,99006.19
2022-10-18T15:14:23.766Z,99005.38
2022-10-18T15:17:31.509Z,98986.38
2022-10-18T15:20:42.317Z,98985.84
2022-10-18T15:23:45.419Z,99012.91
2022-10-18T15:26:51.157Z,99006.06
2022-10-18T15:29:56.424Z,99009.94
2022-10-18T15:33:02.620Z,99007.78
2022-10-18T15:36:11.573Z,98995.63
2022-10-18T15:39:19.367Z,98995.94
2022-10-18T15:42:39.212Z,99005.78
2022-10-18T15:49:38.922Z,98991.44
2022-10-18T15:52:43.341Z,98992.88
2022-10-18T15:55:52.252Z,98992.00
2022-10-18T15:58:57.941Z,98998.38
2022-10-18T16:02:02.532Z,98999.19
2022-10-18T16:05:06.694Z,99004.50
2022-10-18T16:08:21.468Z,98993.69
2022-10-18T16:11:27.187Z,99011.44
2022-10-18T16:14:30.841Z,99013.66
2022-10-18T16:17:36.014Z,99021.44
2022-10-18T16:20:39.134Z,99023.69
2022-10-18T16:23:42.567Z,99022.88
2022-10-18T16:26:45.803Z,99027.03
2022-10-18T16:29:49.154Z,99027.03
2022-10-18T16:32:53.482Z,99034.50
2022-10-18T16:35:57.009Z,99041.41
2022-10-18T16:39:07.539Z,99046.94
2022-10-18T16:42:10.717Z,99041.41
2022-10-18T16:45:13.746Z,99032.03
2022-10-18T16:48:21.720Z,99041.94
2022-10-18T16:51:25.540Z,99047.75
2022-10-18T16:54:29.378Z,99044.19
2022-10-18T16:57:32.442Z,99043.06
2022-10-18T17:00:35.840Z,99040.59
2022-10-18T17:03:40.826Z,99054.91
2022-10-18T17:06:47.398Z,99052.44
2022-10-18T17:09:50.480Z,99050.81
2022-10-18T17:12:54.945Z,99055.72
2022-10-18T17:15:59.320Z,99059.28
2022-10-18T17:19:11.759Z,99060.13
2022-10-18T17:22:14.802Z,99070.63
2022-10-18T17:25:20.505Z,99088.78
2022-10-18T17:28:23.537Z,99097.88
2022-10-18T17:31:27.737Z,99102.56
2022-10-18T17:34:32.185Z,99111.97
2022-10-18T17:37:35.928Z,99115.81
2022-10-18T17:40:42.013Z,99115.53
2022-10-18T17:43:45.452Z,99131.53
2022-10-18T17:46:49.091Z,99143.69
2022-10-18T17:49:54.806Z,99149.19
2022-10-18T17:52:57.970Z,99150.63
2022-10-18T17:56:03.683Z,99158.38
2022-10-18T17:59:07.168Z,99170.00
2022-10-18T18:02:11.321Z,99176.63
2022-10-18T18:05:15.786Z,99183.47
2022-10-18T18:08:19.186Z,99185.94
2022-10-18T18:11:22.165Z,99179.91
2022-10-18T18:14:25.808Z,99182.44
2022-10-18T18:17:34.481Z,99192.63
2022-10-18T18:20:55.033Z,99187.69
2022-10-18T18:23:58.576Z,99190.47
2022-10-18T18:27:02.254Z,99198.97
2022-10-18T18:30:07.193Z,99209.69
2022-10-18T18:33:13.503Z,99207.16
2022-10-18T18:36:18.855Z,99200.44
2022-10-18T18:39:27.763Z,99196.81
2022-10-18T18:42:31.199Z,99187.94
2022-10-18T18:45:34.735Z,99178.16
2022-10-18T18:48:38.794Z,99182.22
2022-10-18T18:51:43.807Z,99188.16
2022-10-18T18:54:46.786Z,99191.44
2022-10-18T18:57:50.361Z,99208.50
2022-10-18T19:00:53.402Z,99199.31
2022-10-18T19:04:00.077Z,99206.19
2022-10-18T19:07:04.611Z,99215.78
2022-10-18T19:10:08.976Z,99224.59
2022-10-18T19:13:12.008Z,99222.34
2022-10-18T19:16:23.220Z,99245.66
2022-10-18T19:19:28.411Z,99251.19
2022-10-18T19:22:33.822Z,99257.75
2022-10-18T19:25:37.058Z,99256.09
2022-10-18T19:28:41.110Z,99261.03
2022-10-18T19:31:45.787Z,99257.97
2022-10-18T19:34:49.597Z,99258.47
2022-10-18T19:37:53.947Z,99266.97
2022-10-18T19:40:57.204Z,99276.88
2022-10-18T19:44:00.537Z,99278.53
2022-10-18T19:47:05.116Z,99280.16
2022-10-18T19:50:09.252Z,99283.75
2022-10-18T19:53:14.456Z,99286.81
2022-10-18T19:56:21.422Z,99278.28
2022-10-18T19:59:24.983Z,99282.88
2022-10-18T20:02:27.940Z,99284.06
2022-10-18T20:05:31.559Z,99289.38
2022-10-18T20:08:37.465Z,99290.25
2022-10-18T20:11:42.545Z,99281.22
2022-10-18T20:14:45.506Z,99286.84
2022-10-18T20:20:57.018Z,99295.75
2022-10-18T20:24:01.797Z,99296.94
2022-10-18T20:27:21.211Z,99295.59
2022-10-18T20:30:40.878Z,99282.78
2022-10-18T20:33:47.906Z,99300.47
2022-10-18T20:36:51.908Z,99295.88
2022-10-18T20:39:56.226Z,99294.81
2022-10-18T20:43:03.646Z,99295.69
2022-10-18T20:46:09.018Z,99296.28
2022-10-18T20:49:18.674Z,99288.63
2022-10-18T20:52:28.559Z,99287.28
2022-10-18T20:55:38.745Z,99281.53
2022-10-18T20:58:44.940Z,99283.22
2022-10-18T21:01:48.454Z,99294.84
2022-10-18T21:04:51.473Z,99294.91
2022-10-18T21:07:54.868Z,99293.25
2022-10-18T21:11:02.038Z,99288.84
2022-10-18T21:14:07.464Z,99276.19
2022-10-18T21:17:10.468Z,99281.72
2022-10-18T21:20:13.780Z,99283.63
2022-10-18T21:23:16.741Z,99275.66
2022-10-18T21:26:25.271Z,99281.19
2022-10-18T21:29:30.826Z,99279.31
2022-10-18T21:32:34.458Z,99286.75
2022-10-18T21:35:38.876Z,99277.97
2022-10-18T21:38:46.469Z,99282.38
2022-10-18T21:41:51.750Z,99276.28
2022-10-18T21:44:55.104Z,99282.09
2022-10-18T21:47:58.138Z,99281.28
2022-10-18T21:51:04.468Z,99278.50
2022-10-18T21:54:12.883Z,99281.84
2022-10-18T21:57:17.715Z,99280.22
2022-10-18T22:00:21.023Z,99273.09
2022-10-18T22:03:24.444Z,99274.19
2022-10-18T22:06:32.294Z,99273.91
2022-10-18T22:09:35.667Z,99276.13
2022-10-18T22:12:39.956Z,99267.56
2022-10-18T22:15:43.549Z,99267.03
2022-10-18T22:18:48.697Z,99270.63
2022-10-18T22:21:52.411Z,99268.16
2022-10-18T22:24:55.383Z,99266.22
2022-10-18T22:28:00.419Z,99272.56
2022-10-18T22:31:03.679Z,99263.75
2022-10-18T22:34:11.768Z,99268.16
2022-10-18T22:37:14.787Z,99265.16
2022-10-18T22:40:18.502Z,99257.72
2022-10-18T22:43:22.891Z,99255.78
2022-10-18T22:46:26.571Z,99248.63
2022-10-18T22:49:29.625Z,99243.41
2022-10-18T22:52:33.535Z,99248.94
2022-10-18T22:55:36.725Z,99247.28
2022-10-18T22:58:41.688Z,99239.56
2022-10-18T23:01:44.816Z,99232.41
2022-10-18T23:04:49.638Z,99230.78
2022-10-18T23:07:52.761Z,99236.28
2022-10-18T23:11:00.797Z,99225.78
2022-10-18T23:14:07.193Z,99231.59
2022-10-18T23:17:10.767Z,99234.63
2022-10-18T23:20:13.739Z,99241.78
2022-10-18T23:23:17.296Z,99237.38
2022-10-18T23:26:23.656Z,99238.19
2022-10-18T23:29:28.568Z,99239.03
2022-10-18T23:32:31.892Z,99237.66
2022-10-18T23:35:35.621Z,99233.00
2022-10-18T23:38:40.250Z,99237.38
2022-10-18T23:41:43.675Z,99233.00
2022-10-18T23:44:48.229Z,99223.63
2022-10-18T23:47:51.901Z,99223.09
2022-10-18T23:50:55.450Z,99233.00
2022-10-18T23:53:58.836Z,99228.59
2022-10-18T23:57:02.040Z,99226.66
